createdAt,value
2022-12-04T00:01:04.765Z,18.30
2022-12-04T00:05:08.012Z,20.90
2022-12-04T00:09:09.306Z,16.37
2022-12-04T00:13:10.472Z,20.37
2022-12-04T00:17:11.658Z,18.67
2022-12-04T00:21:14.160Z,20.70
2022-12-04T00:25:15.786Z,20.07
2022-12-04T00:29:16.887Z,21.00
2022-12-04T00:33:18.045Z,19.10
2022-12-04T00:37:19.259Z,22.20
2022-12-04T00:41:23.641Z,18.33
2022-12-04T00:45:24.981Z,15.67
2022-12-04T00:49:26.603Z,16.57
2022-12-04T00:53:28.271Z,18.23
2022-12-04T00:57:29.442Z,17.37
2022-12-04T01:01:30.692Z,15.53
2022-12-04T01:05:32.289Z,17.00
2022-12-04T01:09:33.574Z,16.30
2022-12-04T01:13:34.734Z,17.00
2022-12-04T01:17:36.623Z,17.63
2022-12-04T01:21:38.193Z,17.00
2022-12-04T01:25:39.386Z,17.37
2022-12-04T01:29:40.715Z,18.90
2022-12-04T01:33:42.822Z,15.10
2022-12-04T01:37:43.882Z,16.23
2022-12-04T01:41:45.057Z,20.10
2022-12-04T01:45:49.987Z,17.47
2022-12-04T01:49:51.108Z,17.00
2022-12-04T01:54:01.784Z,16.57
2022-12-04T01:58:05.771Z,15.83
2022-12-04T02:02:16.509Z,16.30
2022-12-04T02:06:17.739Z,18.10
2022-12-04T02:10:22.345Z,18.90
2022-12-04T02:14:27.314Z,16.73
2022-12-04T02:18:41.655Z,17.60
2022-12-04T02:23:20.272Z,14.20
2022-12-04T02:27:40.042Z,17.53
2022-12-04T02:31:47.973Z,19.53
2022-12-04T02:35:56.004Z,17.10
2022-12-04T02:40:01.007Z,18.93
2022-12-04T02:44:08.471Z,19.37
2022-12-04T02:48:12.850Z,18.10
2022-12-04T02:52:17.799Z,16.10
2022-12-04T02:56:31.833Z,16.13
2022-12-04T03:00:36.312Z,17.93
2022-12-04T03:04:39.174Z,18.70
2022-12-04T03:08:44.058Z,19.57
2022-12-04T03:12:52.230Z,17.00
2022-12-04T03:16:57.077Z,18.70
2022-12-04T03:21:04.771Z,17.30
2022-12-04T03:25:07.615Z,16.60
2022-12-04T03:29:21.602Z,15.90
2022-12-04T03:33:29.464Z,14.70
2022-12-04T03:37:46.547Z,18.73
2022-12-04T03:42:10.073Z,19.00
2022-12-04T03:46:15.081Z,16.30
2022-12-04T03:50:28.959Z,15.30
2022-12-04T03:54:33.746Z,17.77
2022-12-04T03:58:38.319Z,17.53
2022-12-04T04:02:45.916Z,17.37
2022-12-04T04:06:53.572Z,15.20
2022-12-04T04:11:13.706Z,16.30
2022-12-04T04:15:36.432Z,17.07
2022-12-04T04:19:41.818Z,14.40
2022-12-04T04:24:04.474Z,16.67
2022-12-04T04:28:05.627Z,14.77
2022-12-04T04:32:25.945Z,12.33
2022-12-04T04:36:37.186Z,14.03
2022-12-04T04:41:02.229Z,15.87
2022-12-04T04:45:10.333Z,15.57
2022-12-04T04:49:13.912Z,17.43
2022-12-04T04:53:18.863Z,16.97
2022-12-04T04:57:28.950Z,15.90
2022-12-04T05:01:30.150Z,18.00
2022-12-04T05:05:31.319Z,19.20
2022-12-04T05:09:35.709Z,16.80
2022-12-04T05:13:35.554Z,18.33
2022-12-04T05:17:37.026Z,18.03
2022-12-04T05:21:38.222Z,15.53
2022-12-04T05:25:39.391Z,16.07
2022-12-04T05:29:40.562Z,14.57
2022-12-04T05:33:41.744Z,18.47
2022-12-04T05:37:42.905Z,16.23
2022-12-04T05:41:43.991Z,16.83
2022-12-04T05:45:45.062Z,19.33
2022-12-04T05:51:09.491Z,16.80
2022-12-04T05:55:10.653Z,17.10
2022-12-04T05:59:12.651Z,17.27
2022-12-04T06:03:13.886Z,17.93
2022-12-04T06:07:15.137Z,17.30
2022-12-04T06:11:25.726Z,18.40
2022-12-04T06:15:26.891Z,17.07
2022-12-04T06:19:28.098Z,15.73
2022-12-04T06:23:29.193Z,19.43
2022-12-04T06:27:30.368Z,19.43
2022-12-04T06:31:32.913Z,24.33
2022-12-04T06:35:34.152Z,31.53
2022-12-04T06:39:35.525Z,21.67
2022-12-04T06:43:37.432Z,25.37
2022-12-04T06:47:38.610Z,27.20
2022-12-04T06:51:40.141Z,23.17
2022-12-04T06:55:45.123Z,22.10
2022-12-04T06:59:46.315Z,20.67
2022-12-04T07:03:51.581Z,24.73
2022-12-04T07:07:50.938Z,24.27
2022-12-04T07:11:53.994Z,28.20
2022-12-04T07:15:55.180Z,23.00
2022-12-04T07:19:56.522Z,25.73
2022-12-04T07:23:59.452Z,25.07
2022-12-04T07:28:00.633Z,21.37
2022-12-04T07:32:01.884Z,26.20
2022-12-04T07:36:05.541Z,24.13
2022-12-04T07:40:07.822Z,22.43
2022-12-04T07:44:09.020Z,23.33
2022-12-04T07:48:10.202Z,23.10
2022-12-04T07:52:11.421Z,19.23
2022-12-04T07:56:14.103Z,19.57
2022-12-04T08:00:16.486Z,24.70
2022-12-04T08:04:17.690Z,23.90
2022-12-04T08:08:18.987Z,24.40
2022-12-04T08:12:20.145Z,22.40
2022-12-04T08:16:21.741Z,25.57
2022-12-04T08:20:22.915Z,24.20
2022-12-04T08:24:24.022Z,25.77
2022-12-04T08:28:25.398Z,24.87
2022-12-04T08:32:26.611Z,25.60
2022-12-04T08:36:28.673Z,26.60
2022-12-04T08:40:29.779Z,25.77
2022-12-04T08:44:30.965Z,27.30
2022-12-04T08:48:32.548Z,30.63
2022-12-04T08:52:33.722Z,27.17
2022-12-04T08:56:37.022Z,25.63
2022-12-04T09:00:38.505Z,24.50
2022-12-04T09:04:39.673Z,26.87
2022-12-04T09:08:42.529Z,28.23
2022-12-04T09:12:43.836Z,23.60
2022-12-04T09:16:45.013Z,26.03
2022-12-04T09:20:58.764Z,28.63
2022-12-04T09:25:00.248Z,27.60
2022-12-04T09:29:03.735Z,26.50
2022-12-04T09:33:04.897Z,31.50
2022-12-04T09:37:06.086Z,24.53
2022-12-04T09:41:20.407Z,30.57
2022-12-04T09:45:24.347Z,26.60
2022-12-04T09:49:32.353Z,32.67
2022-12-04T09:53:43.380Z,29.33
2022-12-04T09:57:48.306Z,29.47
2022-12-04T10:02:13.239Z,25.40
2022-12-04T10:06:21.327Z,26.57
2022-12-04T10:10:29.312Z,27.13
2022-12-04T10:15:04.601Z,29.10
2022-12-04T10:19:27.924Z,31.30
2022-12-04T10:23:45.250Z,26.10
2022-12-04T10:27:50.256Z,29.03
2022-12-04T10:31:55.156Z,34.27
2022-12-04T10:35:56.832Z,27.10
2022-12-04T10:40:04.779Z,29.80
2022-12-04T10:44:07.845Z,28.97
2022-12-04T10:48:12.752Z,26.07
2022-12-04T10:52:13.937Z,34.57
2022-12-04T10:56:20.979Z,29.77
2022-12-04T11:00:31.271Z,29.97
2022-12-04T11:04:34.951Z,25.13
2022-12-04T11:08:39.833Z,24.80
2022-12-04T11:12:41.035Z,23.80
2022-12-04T11:16:45.038Z,24.47
2022-12-04T11:21:07.317Z,33.47
2022-12-04T11:25:12.294Z,28.37
2022-12-04T11:29:16.514Z,32.10
2022-12-04T11:33:21.703Z,24.17
2022-12-04T11:37:29.289Z,26.80
2022-12-04T11:41:31.670Z,27.30
2022-12-04T11:45:33.261Z,24.50
2022-12-04T11:49:34.713Z,29.20
2022-12-04T11:53:50.450Z,23.37
2022-12-04T11:58:07.738Z,27.70
2022-12-04T12:02:30.773Z,25.20
2022-12-04T12:06:38.421Z,28.27
2022-12-04T12:10:46.267Z,28.43
2022-12-04T12:15:09.895Z,26.83
2022-12-04T12:19:50.151Z,28.13
2022-12-04T12:23:58.092Z,26.47
2022-12-04T12:28:38.210Z,29.97
2022-12-04T12:33:09.325Z,26.80
2022-12-04T12:37:23.578Z,31.37
2022-12-04T12:41:28.389Z,27.37
2022-12-04T12:46:03.883Z,23.80
2022-12-04T12:50:15.003Z,28.90
2022-12-04T12:54:29.277Z,28.00
2022-12-04T12:58:37.279Z,25.53
2022-12-04T13:03:16.061Z,29.30
2022-12-04T13:07:24.053Z,23.40
2022-12-04T13:11:27.845Z,25.50
2022-12-04T13:15:32.858Z,23.73
2022-12-04T13:19:39.384Z,26.10
2022-12-04T13:23:53.444Z,25.03
2022-12-04T13:28:16.524Z,22.30
2022-12-04T13:32:54.975Z,29.30
2022-12-04T13:37:23.775Z,24.37
2022-12-04T13:41:26.509Z,23.00
2022-12-04T13:45:31.883Z,25.17
2022-12-04T13:49:35.806Z,28.50
2022-12-04T13:53:39.816Z,27.23
2022-12-04T13:57:44.909Z,26.50
2022-12-04T14:01:50.136Z,27.83
2022-12-04T14:05:52.132Z,24.97
2022-12-04T14:09:55.907Z,23.03
2022-12-04T14:14:01.155Z,24.20
2022-12-04T14:18:14.476Z,24.40
2022-12-04T14:22:31.277Z,26.70
2022-12-04T14:27:03.223Z,28.63
2022-12-04T14:30:39.387Z,27.27
2022-12-04T14:34:41.116Z,24.07
2022-12-04T14:38:48.478Z,28.00
2022-12-04T14:42:50.244Z,24.50
2022-12-04T14:46:53.759Z,25.63
2022-12-04T14:51:14.087Z,30.73
2022-12-04T14:55:37.157Z,24.57
2022-12-04T14:59:44.620Z,31.30
2022-12-04T15:03:48.297Z,24.10
2022-12-04T15:07:52.587Z,23.50
2022-12-04T15:12:14.934Z,28.07
2022-12-04T15:16:19.455Z,27.70
2022-12-04T15:20:20.926Z,25.13
2022-12-04T15:24:24.986Z,25.20
2022-12-04T15:28:32.928Z,27.70
2022-12-04T15:32:34.306Z,36.77
2022-12-04T15:36:51.001Z,27.93
2022-12-04T15:41:00.218Z,28.47
2022-12-04T15:45:12.151Z,28.87
2022-12-04T15:49:19.111Z,25.60
2022-12-04T15:53:24.220Z,29.43
2022-12-04T15:57:31.854Z,28.57
2022-12-04T16:01:40.030Z,32.63
2022-12-04T16:05:41.238Z,33.30
2022-12-04T16:10:01.046Z,25.23
2022-12-04T16:14:04.842Z,28.23
2022-12-04T16:18:08.720Z,24.97
2022-12-04T16:22:20.233Z,29.77
2022-12-04T16:26:19.903Z,29.00
2022-12-04T16:30:21.062Z,28.63
2022-12-04T16:34:22.218Z,29.53
2022-12-04T16:38:26.257Z,28.17
2022-12-04T16:42:28.928Z,29.63
2022-12-04T16:46:30.197Z,30.63
2022-12-04T16:50:31.428Z,27.27
2022-12-04T16:54:33.024Z,31.60
2022-12-04T16:58:34.259Z,29.80
2022-12-04T17:02:35.352Z,30.20
2022-12-04T17:06:36.547Z,26.33
2022-12-04T17:10:37.728Z,35.63
2022-12-04T17:14:39.830Z,35.47
2022-12-04T17:18:41.612Z,27.90
2022-12-04T17:22:42.691Z,31.53
2022-12-04T17:26:43.797Z,33.77
2022-12-04T17:30:45.617Z,29.73
2022-12-04T17:34:46.828Z,30.27
2022-12-04T17:38:49.910Z,32.40
2022-12-04T17:42:50.980Z,32.57
2022-12-04T17:46:52.786Z,32.50
2022-12-04T17:51:11.950Z,30.00
2022-12-04T17:55:13.233Z,31.27
2022-12-04T17:59:14.431Z,28.07
2022-12-04T18:03:15.526Z,33.00
2022-12-04T18:07:16.815Z,33.63
2022-12-04T18:11:20.001Z,35.67
2022-12-04T18:15:21.196Z,30.80
2022-12-04T18:19:28.007Z,36.47
2022-12-04T18:23:29.568Z,39.33
2022-12-04T18:27:30.625Z,31.20
2022-12-04T18:31:32.023Z,35.40
2022-12-04T18:35:33.218Z,33.10
2022-12-04T18:39:34.318Z,36.10
2022-12-04T18:43:37.786Z,33.77
2022-12-04T18:47:38.904Z,41.67
2022-12-04T18:51:48.931Z,29.67
2022-12-04T18:55:47.267Z,32.20
2022-12-04T18:59:48.418Z,32.30
2022-12-04T19:03:49.513Z,36.10
2022-12-04T19:07:51.742Z,34.73
2022-12-04T19:11:52.884Z,31.03
2022-12-04T19:15:53.946Z,32.40
2022-12-04T19:19:55.419Z,30.67
2022-12-04T19:23:59.830Z,30.17
2022-12-04T19:28:02.971Z,32.23
2022-12-04T19:32:04.211Z,32.40
2022-12-04T19:36:06.038Z,34.97
2022-12-04T19:40:07.949Z,29.07
2022-12-04T19:44:40.256Z,30.90
2022-12-04T19:48:12.299Z,33.10
2022-12-04T19:52:13.666Z,30.93
2022-12-04T19:56:18.167Z,38.17
2022-12-04T20:00:19.586Z,36.77
2022-12-04T20:04:21.106Z,34.10
2022-12-04T20:08:22.430Z,36.23
2022-12-04T20:12:24.177Z,29.20
2022-12-04T20:16:27.778Z,29.53
2022-12-04T20:20:28.930Z,31.53
2022-12-04T20:24:30.119Z,30.97
2022-12-04T20:28:31.241Z,29.63
2022-12-04T20:32:33.713Z,28.37
2022-12-04T20:36:37.392Z,33.03
2022-12-04T20:40:38.545Z,29.73
2022-12-04T20:44:39.638Z,29.67
2022-12-04T20:48:42.952Z,33.90
2022-12-04T20:52:44.148Z,27.00
2022-12-04T20:56:47.932Z,30.07
2022-12-04T21:00:49.113Z,35.00
2022-12-04T21:04:50.288Z,33.00
2022-12-04T21:08:59.689Z,33.03
2022-12-04T21:13:19.326Z,32.20
2022-12-04T21:17:20.718Z,28.60
2022-12-04T21:21:22.129Z,30.40
2022-12-04T21:25:30.451Z,31.03
2022-12-04T21:29:31.653Z,33.33
2022-12-04T21:33:33.511Z,32.90
2022-12-04T21:37:34.951Z,31.97
2022-12-04T21:41:54.576Z,34.77
2022-12-04T21:45:58.122Z,34.57
2022-12-04T21:49:59.659Z,32.10
2022-12-04T21:54:01.826Z,35.40
2022-12-04T21:58:03.023Z,32.10
2022-12-04T22:02:04.252Z,34.50
2022-12-04T22:06:05.832Z,27.00
2022-12-04T22:10:10.834Z,28.13
2022-12-04T22:14:11.802Z,28.77
2022-12-04T22:18:13.256Z,30.23
2022-12-04T22:22:14.324Z,34.07
2022-12-04T22:26:18.610Z,31.60
2022-12-04T22:30:19.691Z,31.80
2022-12-04T22:34:20.847Z,36.60
2022-12-04T22:38:21.900Z,35.30
2022-12-04T22:42:23.056Z,32.80
2022-12-04T22:46:24.157Z,33.70
2022-12-04T22:50:25.265Z,33.53
2022-12-04T22:54:26.464Z,31.13
2022-12-04T22:58:27.626Z,25.93
2022-12-04T23:02:28.787Z,34.20
2022-12-04T23:06:32.053Z,32.00
2022-12-04T23:10:37.890Z,29.20
2022-12-04T23:14:38.965Z,29.70
2022-12-04T23:18:40.035Z,33.33
2022-12-04T23:22:41.176Z,29.67
2022-12-04T23:26:44.845Z,29.60
2022-12-04T23:30:46.306Z,33.47
2022-12-04T23:34:47.370Z,26.87
2022-12-04T23:38:48.677Z,31.13
2022-12-04T23:42:49.754Z,29.40
2022-12-04T23:46:50.888Z,28.00
2022-12-04T23:50:52.573Z,28.60
2022-12-04T23:54:53.823Z,28.10
2022-12-04T23:58:56.378Z,24.87
